Danville, IL

5:45 PM CDT on August 30, 2015 (GMT -0500)
APRSWXNET | | Change Station
CLOSE
Current Station
Personal Weather Station
Location: Tilton, IL
Elevation: 626 ft
Nearby Weather Stations

Elev 626 ft 40.11 °N, 87.64 °W | Updated 34 minutes ago

Partly Cloudy
Partly Cloudy
86 °F
Feels Like 90 °F
N
0
Wind Variable Wind from South
Gusts 2.0 mph

Today
High -- | Low -- °F
--% Chance of Precip.
Yesterday
High -- | Low -- °F
Precip. -- in
6:16 AM 7:25 PM
Full, 98% visible
Pressure 30.00 in
Visibility 7.0 miles
Clouds Clear
Heat Index 90 °F
Dew Point 68 °F
Humidity 56%
Rainfall in
Snow Depth Not available.
UV 2 out of 12
Pollen 10.20 out of 12
Air Quality Not available.
Flu Activity Not available.
METAR KDNV 302235Z AUTO 26004KT 7SM CLR 28/20 A3000 RMK AO2 T02770201
Pressure 30.00 in
Visibility 7.0 miles
Clouds Clear
Heat Index 90 °F
Dew Point 68 °F
Humidity 56%
Rainfall in
Snow Depth Not available.
UV 2 out of 12
Pollen 10.20 out of 12
Air Quality Not available.
Flu Activity Not available.
METAR KDNV 302235Z AUTO 26004KT 7SM CLR 28/20 A3000 RMK AO2 T02770201

10-Day Weather Forecast

×

Almanac

Astronomy

Aug. 30, 2015 Rise Set
Actual Time
Civil Twilight
Nautical Twilight
Astronomical Twilight
Moon
Length of Visible Light
Length of Day
Tomorrow will be .
, % of the Moon is Illuminated

Today's Extremes

State Highs State Lows

Community

WunderPhotos

Upload Photos

1,851,075 photos uploaded!

WunderBlogs® & News

Nearby

Air Quality

  Air Quality AQ Index Pollutant
Not available.

Snow Depth

Station Depth Elevation

Earthquake Activity

City Distance Mag. Time & Date
Minimum magnitude displayed is 2.5.

Coastal Water Temperatures

Place Temperature

Stations

Nearby Weather Stations

Station Location Temp. Windchill Dew Point Humidity Wind Precip. Elev Updated Type